createdAt,value
2017-05-23T00:00:47.342Z,18.08
2017-05-23T00:01:47.918Z,18.00
2017-05-23T00:02:48.492Z,17.85
2017-05-23T00:03:49.068Z,17.86
2017-05-23T00:04:49.644Z,18.03
2017-05-23T00:05:50.221Z,17.94
2017-05-23T00:06:50.796Z,17.87
2017-05-23T00:07:51.371Z,17.98
2017-05-23T00:08:51.961Z,17.98
2017-05-23T00:09:52.547Z,18.03
2017-05-23T00:10:53.125Z,17.97
2017-05-23T00:11:53.713Z,17.92
2017-05-23T00:12:54.301Z,17.82
2017-05-23T00:13:54.880Z,17.90
2017-05-23T00:14:55.456Z,17.86
2017-05-23T00:15:56.032Z,17.89
2017-05-23T00:16:56.607Z,17.89
2017-05-23T00:17:57.184Z,17.87
2017-05-23T00:18:57.759Z,18.07
2017-05-23T00:19:58.335Z,17.95
2017-05-23T00:20:58.911Z,17.87
2017-05-23T00:21:59.486Z,17.78
2017-05-23T00:23:00.063Z,17.90
2017-05-23T00:24:00.638Z,17.71
2017-05-23T00:25:01.214Z,17.78
2017-05-23T00:26:01.790Z,17.92
2017-05-23T00:27:02.365Z,17.94
2017-05-23T00:28:02.942Z,17.94
2017-05-23T00:29:03.519Z,17.78
2017-05-23T00:30:04.097Z,17.67
2017-05-23T00:31:04.673Z,17.71
2017-05-23T00:32:05.252Z,17.63
2017-05-23T00:33:05.829Z,17.63
2017-05-23T00:34:06.405Z,17.65
2017-05-23T00:35:06.981Z,17.65
2017-05-23T00:36:07.557Z,17.48
2017-05-23T00:37:08.133Z,17.34
2017-05-23T00:38:08.710Z,17.39
2017-05-23T00:39:09.285Z,17.39
2017-05-23T00:40:09.861Z,17.49
2017-05-23T00:41:10.436Z,17.52
2017-05-23T00:42:11.011Z,17.42
2017-05-23T00:43:11.586Z,17.41
2017-05-23T00:44:12.162Z,17.57
2017-05-23T00:45:12.749Z,17.52
2017-05-23T00:46:13.328Z,17.42
2017-05-23T00:47:13.905Z,17.16
2017-05-23T00:48:14.491Z,16.96
2017-05-23T00:49:15.069Z,16.72
2017-05-23T00:50:15.646Z,17.09
2017-05-23T00:51:16.223Z,16.91
2017-05-23T00:52:16.800Z,17.05
2017-05-23T00:53:17.376Z,17.04
2017-05-23T00:54:17.953Z,16.81
2017-05-23T00:55:18.529Z,16.89
2017-05-23T00:56:19.103Z,17.02
2017-05-23T00:57:19.679Z,16.91
2017-05-23T00:58:20.255Z,16.65
2017-05-23T00:59:20.829Z,16.75
2017-05-23T01:00:21.406Z,16.86
2017-05-23T01:01:21.981Z,16.60
2017-05-23T01:02:22.556Z,16.69
2017-05-23T01:03:23.133Z,16.72
2017-05-23T01:04:23.708Z,16.35
2017-05-23T01:05:24.284Z,16.35
2017-05-23T01:06:24.858Z,16.39
2017-05-23T01:07:25.433Z,16.39
2017-05-23T01:08:26.009Z,16.38
2017-05-23T01:09:26.583Z,16.47
2017-05-23T01:10:27.160Z,16.69
2017-05-23T01:11:27.735Z,16.83
2017-05-23T01:12:28.310Z,17.02
2017-05-23T01:13:28.898Z,16.69
2017-05-23T01:14:29.475Z,16.74
2017-05-23T01:15:30.065Z,16.81
2017-05-23T01:16:30.639Z,16.86
2017-05-23T01:17:31.217Z,16.99
2017-05-23T01:18:31.793Z,17.04
2017-05-23T01:19:32.370Z,16.94
2017-05-23T01:20:32.960Z,17.02
2017-05-23T01:21:33.549Z,17.19
2017-05-23T01:22:34.124Z,16.99
2017-05-23T01:23:34.701Z,17.24
2017-05-23T01:24:35.277Z,17.34
2017-05-23T01:25:35.854Z,17.34
2017-05-23T01:26:36.431Z,17.46
2017-05-23T01:27:37.008Z,17.52
2017-05-23T01:28:37.582Z,17.64
2017-05-23T01:29:38.160Z,17.67
2017-05-23T01:30:38.738Z,17.67
2017-05-23T01:31:39.315Z,17.72
2017-05-23T01:32:39.893Z,17.79
2017-05-23T01:33:40.469Z,17.70
2017-05-23T01:34:41.045Z,17.65
2017-05-23T01:35:41.625Z,17.78
2017-05-23T01:36:42.204Z,17.82
2017-05-23T01:37:42.781Z,17.85
2017-05-23T01:38:43.365Z,17.83
2017-05-23T01:39:43.951Z,17.79
2017-05-23T01:40:44.529Z,17.87
2017-05-23T01:41:45.108Z,17.92
2017-05-23T01:42:45.688Z,17.97
2017-05-23T01:43:46.259Z,17.94
2017-05-23T01:44:46.838Z,18.10
2017-05-23T01:45:47.417Z,18.11
2017-05-23T01:46:48.007Z,18.03
2017-05-23T01:47:48.585Z,18.00
2017-05-23T01:48:49.177Z,18.05
2017-05-23T01:49:49.754Z,18.00
2017-05-23T01:50:50.333Z,18.07
2017-05-23T01:51:50.912Z,18.07
2017-05-23T01:52:51.490Z,18.07
2017-05-23T01:53:52.067Z,18.03
2017-05-23T01:54:52.644Z,18.15
2017-05-23T01:55:53.233Z,17.97
2017-05-23T01:56:53.812Z,18.07
2017-05-23T01:57:54.404Z,18.07
2017-05-23T01:58:54.982Z,18.08
2017-05-23T01:59:55.558Z,18.10
2017-05-23T02:00:56.137Z,18.10
2017-05-23T02:01:56.715Z,18.04
2017-05-23T02:02:57.296Z,18.07
2017-05-23T02:03:57.870Z,18.11
2017-05-23T02:04:58.459Z,18.13
2017-05-23T02:05:59.036Z,18.22
2017-05-23T02:06:59.614Z,18.13
2017-05-23T02:08:00.194Z,18.08
2017-05-23T02:09:00.771Z,18.15
2017-05-23T02:10:01.362Z,18.07
2017-05-23T02:11:01.938Z,18.10
2017-05-23T02:12:02.518Z,18.13
2017-05-23T02:13:03.094Z,18.23
2017-05-23T02:14:03.672Z,18.22
2017-05-23T02:15:04.263Z,18.16
2017-05-23T02:16:04.841Z,18.07
2017-05-23T02:17:05.419Z,18.18
2017-05-23T02:18:05.997Z,18.10
2017-05-23T02:19:06.573Z,18.07
2017-05-23T02:20:07.163Z,18.13
2017-05-23T02:21:07.739Z,18.29
2017-05-23T02:22:08.315Z,18.29
2017-05-23T02:23:08.892Z,18.15
2017-05-23T02:24:09.468Z,18.13
2017-05-23T02:25:10.044Z,18.15
2017-05-23T02:26:10.621Z,18.08
2017-05-23T02:27:11.199Z,18.05
2017-05-23T02:28:11.777Z,18.15
2017-05-23T02:29:12.356Z,18.03
2017-05-23T02:30:12.932Z,18.15
2017-05-23T02:31:13.510Z,18.10
2017-05-23T02:32:14.101Z,18.03
2017-05-23T02:33:14.677Z,18.19
2017-05-23T02:34:15.253Z,18.15
2017-05-23T02:35:15.843Z,18.15
2017-05-23T02:36:16.420Z,18.08
2017-05-23T02:37:16.997Z,18.07
2017-05-23T02:38:17.588Z,18.25
2017-05-23T02:39:18.163Z,18.04
2017-05-23T02:40:18.742Z,18.05
2017-05-23T02:41:19.318Z,18.04
2017-05-23T02:42:19.897Z,18.07
2017-05-23T02:43:20.473Z,18.19
2017-05-23T02:44:21.052Z,18.10
2017-05-23T02:45:21.631Z,18.10
2017-05-23T02:46:22.208Z,18.15
2017-05-23T02:47:22.788Z,18.23
2017-05-23T02:48:23.365Z,18.23
2017-05-23T02:49:23.943Z,18.23
2017-05-23T02:50:24.522Z,18.29
2017-05-23T02:51:25.097Z,18.20
2017-05-23T02:52:25.674Z,18.10
2017-05-23T02:53:26.253Z,17.97
2017-05-23T02:54:26.835Z,18.13
2017-05-23T02:55:27.409Z,18.11
2017-05-23T02:56:27.988Z,18.08
2017-05-23T02:57:28.564Z,17.86
2017-05-23T02:58:29.142Z,17.29
2017-05-23T02:59:29.723Z,17.20
2017-05-23T03:00:30.299Z,17.27
2017-05-23T03:01:30.878Z,17.26
2017-05-23T03:02:31.470Z,17.05
2017-05-23T03:03:32.047Z,16.83
2017-05-23T03:04:32.624Z,16.94
2017-05-23T03:05:33.203Z,16.84
2017-05-23T03:06:33.779Z,16.21
2017-05-23T03:07:34.358Z,16.23
2017-05-23T03:08:34.934Z,16.24
2017-05-23T03:09:35.512Z,16.20
2017-05-23T03:10:36.094Z,16.20
2017-05-23T03:11:36.668Z,16.21
2017-05-23T03:12:37.246Z,16.21
2017-05-23T03:13:37.822Z,16.31
2017-05-23T03:14:38.399Z,16.26
2017-05-23T03:15:38.975Z,16.28
2017-05-23T03:16:39.554Z,16.33
2017-05-23T03:17:40.133Z,16.09
2017-05-23T03:18:40.710Z,16.01
2017-05-23T03:19:41.286Z,16.05
2017-05-23T03:20:41.865Z,16.01
2017-05-23T03:21:42.441Z,16.16
2017-05-23T03:22:43.017Z,16.17
2017-05-23T03:23:43.596Z,16.15
2017-05-23T03:24:44.169Z,16.29
2017-05-23T03:25:44.749Z,16.41
2017-05-23T03:26:45.327Z,16.32
2017-05-23T03:27:45.906Z,16.35
2017-05-23T03:28:46.486Z,16.28
2017-05-23T03:29:47.062Z,16.28
2017-05-23T03:30:47.643Z,16.13
2017-05-23T03:31:48.220Z,16.21
2017-05-23T03:32:48.801Z,16.28
2017-05-23T03:33:49.376Z,16.20
2017-05-23T03:34:49.954Z,16.12
2017-05-23T03:35:50.549Z,16.13
2017-05-23T03:36:51.123Z,16.42
2017-05-23T03:37:51.701Z,16.42
2017-05-23T03:38:52.277Z,16.32
2017-05-23T03:39:52.856Z,16.26
2017-05-23T03:40:53.437Z,16.17
2017-05-23T03:41:54.014Z,16.31
2017-05-23T03:42:54.592Z,16.42
2017-05-23T03:43:55.168Z,16.50
2017-05-23T03:44:55.748Z,16.60
2017-05-23T03:45:56.327Z,16.39
2017-05-23T03:46:56.904Z,16.21
2017-05-23T03:47:57.482Z,16.24
2017-05-23T03:48:58.060Z,16.04
2017-05-23T03:49:58.653Z,16.21
2017-05-23T03:50:59.232Z,16.32
2017-05-23T03:51:59.811Z,16.36
2017-05-23T03:53:00.402Z,16.33
2017-05-23T03:54:00.981Z,16.28
2017-05-23T03:55:01.559Z,16.39
2017-05-23T03:56:02.138Z,16.57
2017-05-23T03:57:02.716Z,16.47
2017-05-23T03:58:03.292Z,16.32
2017-05-23T03:59:03.870Z,16.24
2017-05-23T04:00:04.451Z,16.09
2017-05-23T04:01:05.029Z,16.26
2017-05-23T04:02:05.608Z,16.49
2017-05-23T04:03:06.184Z,16.36
2017-05-23T04:04:06.762Z,16.33
2017-05-23T04:05:07.338Z,16.36
2017-05-23T04:06:07.917Z,16.24
2017-05-23T04:07:08.496Z,16.31
2017-05-23T04:08:09.076Z,16.36
2017-05-23T04:09:09.654Z,16.39
2017-05-23T04:10:10.233Z,16.29
2017-05-23T04:11:10.812Z,16.46
2017-05-23T04:12:11.393Z,16.16
2017-05-23T04:13:11.972Z,16.23
2017-05-23T04:14:12.550Z,16.00
2017-05-23T04:15:13.128Z,16.05
2017-05-23T04:16:13.775Z,16.02
2017-05-23T04:17:14.289Z,16.09
2017-05-23T04:18:14.868Z,16.35
2017-05-23T04:19:15.446Z,16.35
2017-05-23T04:20:16.042Z,16.43
2017-05-23T04:21:16.606Z,16.60
2017-05-23T04:22:17.185Z,16.46
2017-05-23T04:23:17.764Z,16.46
2017-05-23T04:24:18.344Z,16.74
2017-05-23T04:25:18.923Z,16.66
2017-05-23T04:26:19.502Z,16.69
2017-05-23T04:27:20.081Z,16.39
2017-05-23T04:28:20.660Z,16.38
2017-05-23T04:29:21.239Z,16.35
2017-05-23T04:30:21.820Z,16.41
2017-05-23T04:31:22.400Z,16.47
2017-05-23T04:32:22.980Z,16.61
2017-05-23T04:33:23.561Z,16.66
2017-05-23T04:34:24.139Z,16.76
2017-05-23T04:35:24.733Z,16.76
2017-05-23T04:36:25.327Z,16.69
2017-05-23T04:37:25.909Z,16.79
2017-05-23T04:38:26.486Z,16.76
2017-05-23T04:39:27.066Z,16.90
2017-05-23T04:40:27.647Z,17.05
2017-05-23T04:41:28.233Z,17.05
2017-05-23T04:42:28.805Z,16.97
2017-05-23T04:43:29.387Z,16.91
2017-05-23T04:44:29.967Z,16.79
2017-05-23T04:45:30.547Z,16.83
2017-05-23T04:46:31.128Z,17.11
2017-05-23T04:47:31.707Z,17.31
2017-05-23T04:48:32.292Z,17.23
2017-05-23T04:49:32.872Z,17.16
2017-05-23T04:50:33.447Z,17.23
2017-05-23T04:51:34.030Z,17.24
2017-05-23T04:52:34.608Z,17.29
2017-05-23T04:53:35.187Z,17.23
2017-05-23T04:54:35.766Z,17.52
2017-05-23T04:55:36.346Z,17.34
2017-05-23T04:56:36.927Z,17.23
2017-05-23T04:57:37.505Z,17.11
2017-05-23T04:58:38.086Z,17.42
2017-05-23T04:59:38.667Z,17.42
2017-05-23T05:00:39.248Z,17.27
2017-05-23T05:01:39.828Z,17.11
2017-05-23T05:02:40.406Z,17.08
2017-05-23T05:03:40.986Z,17.29
2017-05-23T05:04:41.568Z,17.15
2017-05-23T05:05:42.147Z,17.22
2017-05-23T05:06:42.727Z,17.29
2017-05-23T05:07:43.308Z,17.36
2017-05-23T05:08:43.889Z,17.60
2017-05-23T05:09:44.471Z,17.59
2017-05-23T05:10:45.047Z,17.57
2017-05-23T05:11:45.628Z,17.54
2017-05-23T05:12:46.209Z,17.79
2017-05-23T05:13:46.789Z,17.68
2017-05-23T05:14:47.370Z,17.68
2017-05-23T05:15:47.953Z,17.72
2017-05-23T05:16:48.544Z,17.78
2017-05-23T05:17:49.125Z,17.65
2017-05-23T05:18:49.704Z,17.98
2017-05-23T05:19:50.285Z,18.01
2017-05-23T05:20:50.865Z,17.97
2017-05-23T05:21:51.446Z,18.13
2017-05-23T05:22:52.053Z,18.05
2017-05-23T05:23:52.635Z,18.15
2017-05-23T05:24:53.215Z,18.20
2017-05-23T05:25:53.796Z,18.13
2017-05-23T05:26:54.378Z,18.31
2017-05-23T05:27:54.958Z,18.43
2017-05-23T05:28:55.537Z,18.37
2017-05-23T05:29:56.119Z,18.40
2017-05-23T05:30:56.698Z,18.44
2017-05-23T05:31:57.281Z,18.44
2017-05-23T05:32:57.874Z,18.44
2017-05-23T05:33:58.455Z,18.41
2017-05-23T05:34:59.036Z,18.60
2017-05-23T05:35:59.617Z,18.60
2017-05-23T05:37:00.197Z,18.60
2017-05-23T05:38:00.778Z,18.52
2017-05-23T05:39:01.359Z,18.50
2017-05-23T05:40:01.953Z,18.56
2017-05-23T05:41:02.545Z,18.53
2017-05-23T05:42:03.112Z,18.44
2017-05-23T05:43:03.691Z,18.60
2017-05-23T05:44:04.272Z,18.58
2017-05-23T05:45:04.853Z,18.47
2017-05-23T05:46:05.433Z,18.59
2017-05-23T05:47:06.013Z,18.47
2017-05-23T05:48:06.593Z,18.58
2017-05-23T05:49:07.175Z,18.62
2017-05-23T05:50:07.755Z,18.65
2017-05-23T05:51:08.336Z,18.55
2017-05-23T05:52:08.915Z,18.47
2017-05-23T05:53:09.496Z,18.56
2017-05-23T05:54:10.076Z,18.58
2017-05-23T05:55:10.656Z,18.65
2017-05-23T05:56:11.238Z,18.65
2017-05-23T05:57:11.816Z,18.71
2017-05-23T05:58:12.395Z,18.66
2017-05-23T05:59:12.979Z,18.59
2017-05-23T06:00:13.557Z,18.65
2017-05-23T06:01:14.136Z,18.78
2017-05-23T06:02:14.714Z,18.70
2017-05-23T06:03:15.295Z,18.65
2017-05-23T06:04:15.876Z,18.78
2017-05-23T06:05:16.456Z,18.80
2017-05-23T06:06:17.035Z,18.88
2017-05-23T06:07:17.617Z,18.83
2017-05-23T06:08:18.196Z,18.89
2017-05-23T06:09:18.781Z,19.02
2017-05-23T06:10:19.360Z,18.96
2017-05-23T06:11:19.941Z,19.09
2017-05-23T06:12:20.524Z,19.15
2017-05-23T06:13:21.104Z,19.26
2017-05-23T06:14:21.696Z,19.29
2017-05-23T06:15:22.278Z,19.30
2017-05-23T06:16:22.859Z,19.29
2017-05-23T06:17:23.439Z,19.33
2017-05-23T06:18:24.018Z,19.24
2017-05-23T06:19:24.601Z,19.44
2017-05-23T06:20:25.179Z,19.51
2017-05-23T06:21:25.760Z,19.63
2017-05-23T06:22:26.340Z,19.56
2017-05-23T06:23:26.921Z,19.62
2017-05-23T06:24:27.503Z,19.58
2017-05-23T06:25:28.082Z,19.77
2017-05-23T06:26:28.663Z,19.79
2017-05-23T06:27:29.246Z,19.77
2017-05-23T06:28:29.841Z,19.82
2017-05-23T06:29:30.422Z,19.73
2017-05-23T06:30:31.000Z,19.81
2017-05-23T06:31:31.581Z,19.88
2017-05-23T06:32:32.163Z,19.95
2017-05-23T06:33:32.747Z,20.04
2017-05-23T06:34:33.339Z,20.07
2017-05-23T06:35:33.919Z,19.89
2017-05-23T06:36:34.515Z,20.03
2017-05-23T06:37:35.095Z,20.10
2017-05-23T06:38:35.677Z,20.14
2017-05-23T06:39:36.281Z,20.28
2017-05-23T06:40:36.837Z,20.18
2017-05-23T06:41:37.418Z,20.26
2017-05-23T06:42:38.000Z,20.19
2017-05-23T06:43:38.581Z,20.24
2017-05-23T06:44:39.160Z,20.16
2017-05-23T06:45:39.743Z,20.22
2017-05-23T06:46:40.325Z,20.19
2017-05-23T06:47:40.904Z,20.31
2017-05-23T06:48:41.486Z,20.48
2017-05-23T06:49:42.068Z,20.40
2017-05-23T06:50:42.648Z,20.50
2017-05-23T06:51:43.228Z,20.41
2017-05-23T06:52:43.810Z,20.58
2017-05-23T06:53:44.391Z,20.60
2017-05-23T06:54:44.972Z,20.59
2017-05-23T06:55:45.552Z,20.80
2017-05-23T06:56:46.134Z,20.92
2017-05-23T06:57:46.731Z,21.09
2017-05-23T06:58:47.313Z,21.22
2017-05-23T06:59:47.893Z,21.12
2017-05-23T07:00:48.473Z,21.24
2017-05-23T07:01:49.055Z,21.29
2017-05-23T07:02:49.639Z,21.25
2017-05-23T07:03:50.215Z,21.15
2017-05-23T07:04:50.796Z,21.00
2017-05-23T07:05:51.382Z,21.00
2017-05-23T07:06:51.959Z,20.88
2017-05-23T07:07:52.541Z,21.03
2017-05-23T07:08:53.123Z,21.00
2017-05-23T07:09:53.719Z,21.17
2017-05-23T07:10:54.301Z,21.02
2017-05-23T07:11:54.880Z,21.12
2017-05-23T07:12:55.476Z,21.17
2017-05-23T07:13:56.057Z,21.02
2017-05-23T07:14:56.640Z,21.00
2017-05-23T07:15:57.221Z,21.03
2017-05-23T07:16:57.821Z,21.12
2017-05-23T07:17:58.401Z,21.14
2017-05-23T07:18:58.989Z,21.11
2017-05-23T07:19:59.565Z,20.93
2017-05-23T07:21:00.146Z,20.99
2017-05-23T07:22:00.728Z,20.74
2017-05-23T07:23:01.308Z,20.77
2017-05-23T07:24:01.892Z,20.77
2017-05-23T07:25:02.472Z,20.85
2017-05-23T07:26:03.054Z,21.05
2017-05-23T07:27:03.636Z,21.09
2017-05-23T07:28:04.216Z,21.14
2017-05-23T07:29:04.797Z,21.27
2017-05-23T07:30:05.379Z,21.32
2017-05-23T07:31:05.960Z,21.45
2017-05-23T07:32:06.540Z,21.24
2017-05-23T07:33:07.119Z,21.30
2017-05-23T07:34:07.700Z,21.42
2017-05-23T07:35:08.282Z,21.39
2017-05-23T07:36:08.863Z,21.39
2017-05-23T07:37:09.459Z,21.57
2017-05-23T07:38:10.039Z,21.60
2017-05-23T07:39:10.622Z,21.79
2017-05-23T07:40:11.203Z,21.76
2017-05-23T07:41:11.800Z,22.06
2017-05-23T07:42:12.379Z,22.06
2017-05-23T07:43:12.961Z,22.02
2017-05-23T07:44:13.541Z,21.85
2017-05-23T07:45:14.136Z,21.79
2017-05-23T07:46:14.718Z,21.79
2017-05-23T07:47:15.298Z,21.72
2017-05-23T07:48:15.878Z,21.89
2017-05-23T07:49:16.460Z,22.15
2017-05-23T07:50:17.042Z,22.28
2017-05-23T07:51:17.624Z,22.18
2017-05-23T07:52:18.206Z,22.10
2017-05-23T07:53:18.788Z,22.13
2017-05-23T07:54:19.371Z,22.17
2017-05-23T07:55:19.951Z,22.15
2017-05-23T07:56:20.535Z,22.18
2017-05-23T07:57:21.117Z,22.22
2017-05-23T07:58:21.697Z,22.20
2017-05-23T07:59:22.278Z,22.07
2017-05-23T08:00:22.861Z,22.10
2017-05-23T08:01:23.441Z,22.18
2017-05-23T08:02:24.023Z,22.22
2017-05-23T08:03:24.603Z,22.06
2017-05-23T08:04:25.184Z,22.11
2017-05-23T08:05:25.768Z,22.36
2017-05-23T08:06:26.357Z,22.41
2017-05-23T08:07:26.930Z,22.47
2017-05-23T08:08:27.513Z,22.60
2017-05-23T08:09:28.096Z,22.53
2017-05-23T08:10:28.676Z,22.48
2017-05-23T08:11:29.260Z,22.43
2017-05-23T08:12:29.846Z,22.69
2017-05-23T08:13:30.422Z,22.59
2017-05-23T08:14:31.002Z,22.83
2017-05-23T08:15:31.586Z,22.73
2017-05-23T08:16:32.168Z,22.55
2017-05-23T08:17:32.748Z,22.51
2017-05-23T08:18:33.344Z,22.73
2017-05-23T08:19:33.925Z,22.93
2017-05-23T08:20:34.507Z,23.00
2017-05-23T08:21:35.088Z,22.99
2017-05-23T08:22:35.669Z,23.06
2017-05-23T08:23:36.249Z,22.83
2017-05-23T08:24:36.844Z,23.21
2017-05-23T08:25:37.427Z,23.20
2017-05-23T08:26:38.010Z,22.87
2017-05-23T08:27:38.593Z,22.75
2017-05-23T08:28:39.174Z,22.72
2017-05-23T08:29:39.758Z,22.84
2017-05-23T08:30:40.353Z,22.78
2017-05-23T08:31:40.932Z,22.84
2017-05-23T08:32:41.514Z,22.83
2017-05-23T08:33:42.096Z,23.05
2017-05-23T08:34:42.680Z,23.39
2017-05-23T08:35:43.263Z,23.21
2017-05-23T08:36:43.859Z,23.32
2017-05-23T08:37:44.441Z,23.39
2017-05-23T08:38:45.024Z,23.28
2017-05-23T08:39:45.608Z,23.27
2017-05-23T08:40:46.190Z,23.21
2017-05-23T08:41:46.773Z,23.03
2017-05-23T08:42:47.357Z,23.08
2017-05-23T08:43:47.939Z,23.12
2017-05-23T08:44:48.521Z,23.31
2017-05-23T08:45:49.116Z,23.18
2017-05-23T08:46:49.700Z,23.40
2017-05-23T08:47:50.280Z,23.00
2017-05-23T08:48:50.862Z,23.00
2017-05-23T08:49:51.443Z,23.17
2017-05-23T08:50:52.026Z,23.18
2017-05-23T08:51:52.611Z,23.17
2017-05-23T08:52:53.192Z,23.24
2017-05-23T08:53:53.774Z,22.87
2017-05-23T08:54:54.361Z,22.87
2017-05-23T08:55:54.952Z,23.21
2017-05-23T08:56:55.534Z,23.10
2017-05-23T08:57:56.115Z,23.25
2017-05-23T08:58:56.709Z,23.17
2017-05-23T08:59:57.290Z,23.00
2017-05-23T09:00:57.871Z,23.34
2017-05-23T09:01:58.457Z,23.17
2017-05-23T09:02:59.039Z,23.37
2017-05-23T09:03:59.623Z,23.34
2017-05-23T09:05:00.208Z,23.31
2017-05-23T09:06:00.791Z,23.46
2017-05-23T09:07:01.373Z,23.41
2017-05-23T09:08:01.958Z,23.55
2017-05-23T09:09:02.539Z,23.43
2017-05-23T09:10:03.120Z,23.40
2017-05-23T09:11:03.702Z,23.41
2017-05-23T09:12:04.298Z,23.37
2017-05-23T09:13:04.880Z,23.43
2017-05-23T09:14:05.462Z,23.66
2017-05-23T09:15:06.045Z,23.56
2017-05-23T09:16:06.627Z,23.55
2017-05-23T09:17:07.212Z,23.58
2017-05-23T09:18:07.794Z,23.65
2017-05-23T09:19:08.376Z,23.91
2017-05-23T09:20:08.960Z,23.78
2017-05-23T09:21:09.542Z,23.59
2017-05-23T09:22:10.127Z,23.74
2017-05-23T09:23:10.711Z,24.02
2017-05-23T09:24:11.293Z,24.16
2017-05-23T09:25:11.876Z,23.74
2017-05-23T09:26:12.460Z,23.71
2017-05-23T09:27:13.040Z,23.61
2017-05-23T09:28:13.621Z,23.48
2017-05-23T09:29:14.206Z,23.37
2017-05-23T09:30:14.787Z,23.34
2017-05-23T09:31:15.371Z,23.27
2017-05-23T09:32:15.955Z,23.39
2017-05-23T09:33:16.537Z,23.86
2017-05-23T09:34:17.120Z,24.13
2017-05-23T09:35:17.703Z,24.02
2017-05-23T09:36:18.286Z,24.14
2017-05-23T09:37:18.881Z,24.06
2017-05-23T09:38:19.478Z,24.32
2017-05-23T09:39:20.069Z,24.58
2017-05-23T09:40:20.646Z,24.50
2017-05-23T09:41:21.230Z,24.32
2017-05-23T09:42:21.813Z,24.18
2017-05-23T09:43:22.398Z,24.02
2017-05-23T09:44:22.983Z,23.99
2017-05-23T09:45:23.567Z,24.39
2017-05-23T09:46:24.163Z,23.92
2017-05-23T09:47:24.762Z,24.01
2017-05-23T09:48:25.359Z,24.53
2017-05-23T09:49:25.943Z,24.23
2017-05-23T09:50:26.529Z,24.50
2017-05-23T09:51:27.112Z,24.38
2017-05-23T09:52:27.694Z,24.20
2017-05-23T09:53:28.281Z,24.28
2017-05-23T09:54:28.861Z,24.21
2017-05-23T09:55:29.457Z,24.03
2017-05-23T09:56:30.039Z,23.81
2017-05-23T09:57:30.623Z,23.81
2017-05-23T09:58:31.208Z,23.77
2017-05-23T09:59:31.791Z,24.01
2017-05-23T10:00:32.374Z,24.29
2017-05-23T10:01:32.960Z,24.20
2017-05-23T10:02:33.546Z,23.95
2017-05-23T10:03:34.125Z,23.66
2017-05-23T10:04:34.709Z,23.74
2017-05-23T10:05:35.292Z,23.84
2017-05-23T10:06:35.873Z,23.95
2017-05-23T10:07:36.457Z,23.91
2017-05-23T10:08:37.040Z,24.48
2017-05-23T10:09:37.624Z,24.55
2017-05-23T10:10:38.206Z,24.36
2017-05-23T10:11:38.791Z,24.39
2017-05-23T10:12:39.376Z,24.16
2017-05-23T10:13:39.958Z,24.36
2017-05-23T10:14:40.541Z,24.39
2017-05-23T10:15:41.126Z,24.28
2017-05-23T10:16:41.709Z,24.18
2017-05-23T10:17:42.291Z,24.17
2017-05-23T10:18:42.877Z,23.65
2017-05-23T10:19:43.460Z,23.88
2017-05-23T10:20:44.043Z,24.18
2017-05-23T10:21:44.629Z,24.13
2017-05-23T10:22:45.218Z,24.13
2017-05-23T10:23:45.798Z,24.48
2017-05-23T10:24:46.383Z,24.58
2017-05-23T10:25:46.967Z,24.63
2017-05-23T10:26:47.553Z,24.48
2017-05-23T10:27:48.132Z,24.69
2017-05-23T10:28:48.713Z,24.70
2017-05-23T10:29:49.298Z,25.03
2017-05-23T10:30:49.883Z,24.86
2017-05-23T10:31:50.467Z,24.91
2017-05-23T10:32:51.051Z,24.74
2017-05-23T10:33:51.633Z,24.93
2017-05-23T10:34:52.231Z,24.73
2017-05-23T10:35:52.815Z,24.36
2017-05-23T10:36:53.399Z,24.38
2017-05-23T10:37:53.983Z,24.18
2017-05-23T10:38:54.566Z,24.28
2017-05-23T10:39:55.153Z,24.32
2017-05-23T10:40:55.736Z,24.48
2017-05-23T10:41:56.319Z,23.91
2017-05-23T10:42:56.903Z,24.14
2017-05-23T10:43:57.487Z,24.73
2017-05-23T10:44:58.070Z,24.84
2017-05-23T10:45:58.654Z,24.54
2017-05-23T10:46:59.239Z,24.57
2017-05-23T10:47:59.823Z,24.40
2017-05-23T10:49:00.408Z,24.51
2017-05-23T10:50:00.992Z,24.70
2017-05-23T10:51:01.590Z,24.36
2017-05-23T10:52:02.173Z,24.26
2017-05-23T10:53:02.771Z,24.02
2017-05-23T10:54:03.355Z,23.88
2017-05-23T10:55:03.940Z,23.84
2017-05-23T10:56:04.525Z,24.17
2017-05-23T10:57:05.109Z,24.18
2017-05-23T10:58:05.694Z,24.36
2017-05-23T10:59:06.278Z,24.54
2017-05-23T11:00:06.862Z,24.10
2017-05-23T11:01:07.444Z,23.87
2017-05-23T11:02:08.028Z,23.92
2017-05-23T11:03:08.613Z,24.28
2017-05-23T11:04:09.204Z,24.55
2017-05-23T11:05:09.778Z,24.55
2017-05-23T11:06:10.364Z,24.02
2017-05-23T11:07:10.947Z,24.61
2017-05-23T11:08:11.530Z,24.57
2017-05-23T11:09:12.116Z,24.17
2017-05-23T11:10:12.701Z,24.33
2017-05-23T11:11:13.284Z,24.40
2017-05-23T11:12:13.868Z,24.14
2017-05-23T11:13:14.452Z,24.35
2017-05-23T11:14:15.034Z,24.45
2017-05-23T11:15:15.619Z,23.83
2017-05-23T11:16:16.205Z,23.87
2017-05-23T11:17:16.787Z,24.26
2017-05-23T11:18:17.370Z,24.48
2017-05-23T11:19:17.954Z,24.43
2017-05-23T11:20:18.538Z,24.51
2017-05-23T11:21:19.121Z,24.38
2017-05-23T11:22:19.711Z,24.54
2017-05-23T11:23:20.290Z,24.55
2017-05-23T11:24:20.875Z,24.57
2017-05-23T11:25:21.474Z,24.11
2017-05-23T11:26:22.073Z,24.35
2017-05-23T11:27:22.665Z,24.33
2017-05-23T11:28:23.249Z,24.66
2017-05-23T11:29:23.831Z,24.69
2017-05-23T11:30:24.413Z,25.01
2017-05-23T11:31:25.010Z,24.55
2017-05-23T11:32:25.596Z,24.30
2017-05-23T11:33:26.179Z,24.76
2017-05-23T11:34:26.760Z,24.68
2017-05-23T11:35:27.347Z,24.66
2017-05-23T11:36:27.930Z,24.76
2017-05-23T11:37:28.525Z,24.70
2017-05-23T11:38:29.111Z,24.57
2017-05-23T11:39:29.696Z,24.95
2017-05-23T11:40:30.278Z,24.95
2017-05-23T11:41:30.879Z,24.98
2017-05-23T11:42:31.461Z,25.08
2017-05-23T11:43:32.045Z,24.98
2017-05-23T11:44:32.627Z,25.06
2017-05-23T11:45:33.212Z,24.73
2017-05-23T11:46:33.800Z,24.91
2017-05-23T11:47:34.379Z,24.92
2017-05-23T11:48:34.963Z,25.38
2017-05-23T11:49:35.545Z,25.28
2017-05-23T11:50:36.129Z,25.41
2017-05-23T11:51:36.714Z,25.13
2017-05-23T11:52:37.298Z,25.13
2017-05-23T11:53:37.882Z,24.51
2017-05-23T11:54:38.467Z,24.55
2017-05-23T11:55:39.049Z,24.55
2017-05-23T11:56:39.635Z,24.65
2017-05-23T11:57:40.221Z,24.38
2017-05-23T11:58:40.803Z,24.35
2017-05-23T11:59:41.387Z,24.54
2017-05-23T12:00:41.971Z,24.74
2017-05-23T12:01:42.555Z,24.57
2017-05-23T12:02:43.141Z,24.98
2017-05-23T12:03:43.726Z,24.57
2017-05-23T12:04:44.311Z,24.68
2017-05-23T12:05:44.897Z,24.55
2017-05-23T12:06:45.481Z,24.14
2017-05-23T12:07:46.064Z,24.53
2017-05-23T12:08:46.647Z,24.89
2017-05-23T12:09:47.231Z,24.57
2017-05-23T12:10:47.813Z,24.54
2017-05-23T12:11:48.397Z,24.58
2017-05-23T12:12:48.985Z,24.55
2017-05-23T12:13:49.566Z,24.48
2017-05-23T12:14:50.162Z,24.57
2017-05-23T12:15:50.746Z,24.42
2017-05-23T12:16:51.336Z,24.50
2017-05-23T12:17:51.915Z,24.60
2017-05-23T12:18:52.498Z,24.03
2017-05-23T12:19:53.082Z,23.71
2017-05-23T12:20:53.665Z,23.99
2017-05-23T12:21:54.247Z,24.02
2017-05-23T12:22:54.831Z,24.01
2017-05-23T12:23:55.415Z,24.24
2017-05-23T12:24:55.998Z,24.13
2017-05-23T12:25:56.594Z,23.98
2017-05-23T12:26:57.179Z,24.03
2017-05-23T12:27:57.761Z,24.10
2017-05-23T12:28:58.345Z,24.03
2017-05-23T12:29:58.930Z,24.28
2017-05-23T12:30:59.512Z,24.47
2017-05-23T12:32:00.096Z,24.29
2017-05-23T12:33:00.681Z,24.38
2017-05-23T12:34:01.270Z,24.26
2017-05-23T12:35:01.850Z,24.61
2017-05-23T12:36:02.432Z,24.73
2017-05-23T12:37:03.016Z,24.98
2017-05-23T12:38:03.600Z,25.10
2017-05-23T12:39:04.183Z,25.17
2017-05-23T12:40:04.766Z,25.10
2017-05-23T12:41:05.351Z,24.98
2017-05-23T12:42:05.940Z,24.65
2017-05-23T12:43:06.534Z,24.85
2017-05-23T12:44:07.118Z,25.08
2017-05-23T12:45:07.702Z,24.96
2017-05-23T12:46:08.284Z,24.80
2017-05-23T12:47:08.868Z,24.86
2017-05-23T12:48:09.452Z,24.81
2017-05-23T12:49:10.036Z,24.63
2017-05-23T12:50:10.623Z,24.74
2017-05-23T12:51:11.206Z,24.42
2017-05-23T12:52:11.787Z,24.20
2017-05-23T12:53:12.372Z,24.38
2017-05-23T12:54:12.956Z,24.57
2017-05-23T12:55:13.553Z,24.38
2017-05-23T12:56:14.136Z,24.70
2017-05-23T12:57:14.721Z,24.73
2017-05-23T12:58:15.307Z,24.42
2017-05-23T12:59:15.892Z,24.39
2017-05-23T13:00:16.476Z,24.65